sensor_id;sensor_type;location;lat;lon;timestamp;P1;durP1;ratioP1;P2;durP2;ratioP2
3845;SDS011;1938;50.812;7.738;2022-09-21T00:00:38;13.83;;;6.80;;
3845;SDS011;1938;50.812;7.738;2022-09-21T00:03:04;9.93;;;5.57;;
3845;SDS011;1938;50.812;7.738;2022-09-21T00:05:30;13.53;;;6.80;;
3845;SDS011;1938;50.812;7.738;2022-09-21T00:08:00;15.53;;;6.90;;
3845;SDS011;1938;50.812;7.738;2022-09-21T00:10:27;11.87;;;7.40;;
3845;SDS011;1938;50.812;7.738;2022-09-21T00:12:53;14.27;;;8.07;;
3845;SDS011;1938;50.812;7.738;2022-09-21T00:15:20;18.00;;;7.40;;
3845;SDS011;1938;50.812;7.738;2022-09-21T00:17:46;16.10;;;9.50;;
3845;SDS011;1938;50.812;7.738;2022-09-21T00:20:13;16.07;;;8.63;;
3845;SDS011;1938;50.812;7.738;2022-09-21T00:22:39;20.10;;;9.50;;
3845;SDS011;1938;50.812;7.738;2022-09-21T00:25:06;16.53;;;8.70;;
3845;SDS011;1938;50.812;7.738;2022-09-21T00:27:32;14.03;;;9.60;;
3845;SDS011;1938;50.812;7.738;2022-09-21T00:29:58;19.77;;;9.30;;
3845;SDS011;1938;50.812;7.738;2022-09-21T00:32:29;18.30;;;9.77;;
3845;SDS011;1938;50.812;7.738;2022-09-21T00:34:58;17.90;;;8.87;;
3845;SDS011;1938;50.812;7.738;2022-09-21T00:37:25;12.53;;;8.50;;
3845;SDS011;1938;50.812;7.738;2022-09-21T00:39:51;20.80;;;9.10;;
3845;SDS011;1938;50.812;7.738;2022-09-21T00:42:18;25.33;;;10.40;;
3845;SDS011;1938;50.812;7.738;2022-09-21T00:44:44;16.73;;;10.00;;
3845;SDS011;1938;50.812;7.738;2022-09-21T00:47:11;21.83;;;9.53;;
3845;SDS011;1938;50.812;7.738;2022-09-21T00:49:43;18.20;;;8.93;;
3845;SDS011;1938;50.812;7.738;2022-09-21T00:52:13;21.43;;;9.73;;
3845;SDS011;1938;50.812;7.738;2022-09-21T00:54:44;12.43;;;9.00;;
3845;SDS011;1938;50.812;7.738;2022-09-21T00:57:14;16.80;;;9.00;;
3845;SDS011;1938;50.812;7.738;2022-09-21T00:59:42;15.90;;;9.70;;
3845;SDS011;1938;50.812;7.738;2022-09-21T01:02:09;15.50;;;9.83;;
3845;SDS011;1938;50.812;7.738;2022-09-21T01:04:36;18.10;;;10.50;;
3845;SDS011;1938;50.812;7.738;2022-09-21T01:07:03;18.10;;;10.63;;
3845;SDS011;1938;50.812;7.738;2022-09-21T01:09:32;24.40;;;11.80;;
3845;SDS011;1938;50.812;7.738;2022-09-21T01:12:03;19.40;;;11.43;;
3845;SDS011;1938;50.812;7.738;2022-09-21T01:17:29;16.80;;;10.97;;
3845;SDS011;1938;50.812;7.738;2022-09-21T01:20:18;13.43;;;9.43;;
3845;SDS011;1938;50.812;7.738;2022-09-21T01:31:21;14.43;;;10.23;;
3845;SDS011;1938;50.812;7.738;2022-09-21T01:33:52;15.10;;;9.30;;
3845;SDS011;1938;50.812;7.738;2022-09-21T01:36:23;13.90;;;8.60;;
3845;SDS011;1938;50.812;7.738;2022-09-21T01:38:57;14.53;;;8.90;;
3845;SDS011;1938;50.812;7.738;2022-09-21T01:41:30;17.40;;;8.50;;
3845;SDS011;1938;50.812;7.738;2022-09-21T01:43:57;16.53;;;10.73;;
3845;SDS011;1938;50.812;7.738;2022-09-21T01:46:32;17.67;;;10.80;;
3845;SDS011;1938;50.812;7.738;2022-09-21T01:49:01;17.10;;;9.30;;
3845;SDS011;1938;50.812;7.738;2022-09-21T01:51:57;14.77;;;9.20;;
3845;SDS011;1938;50.812;7.738;2022-09-21T01:54:34;22.63;;;9.97;;
3845;SDS011;1938;50.812;7.738;2022-09-21T01:57:15;19.00;;;10.90;;
3845;SDS011;1938;50.812;7.738;2022-09-21T01:59:52;16.10;;;9.40;;
3845;SDS011;1938;50.812;7.738;2022-09-21T02:02:25;19.67;;;10.90;;
3845;SDS011;1938;50.812;7.738;2022-09-21T02:04:53;17.37;;;9.30;;
3845;SDS011;1938;50.812;7.738;2022-09-21T02:07:18;32.17;;;10.00;;
3845;SDS011;1938;50.812;7.738;2022-09-21T02:09:45;19.00;;;10.20;;
3845;SDS011;1938;50.812;7.738;2022-09-21T02:12:12;14.33;;;9.10;;
3845;SDS011;1938;50.812;7.738;2022-09-21T02:14:38;16.93;;;9.00;;
3845;SDS011;1938;50.812;7.738;2022-09-21T02:19:58;18.87;;;10.40;;
3845;SDS011;1938;50.812;7.738;2022-09-21T02:28:42;27.33;;;9.20;;
3845;SDS011;1938;50.812;7.738;2022-09-21T02:31:25;109.87;;;12.00;;
3845;SDS011;1938;50.812;7.738;2022-09-21T02:37:16;69.53;;;11.13;;
3845;SDS011;1938;50.812;7.738;2022-09-21T02:39:46;22.07;;;9.40;;
3845;SDS011;1938;50.812;7.738;2022-09-21T02:42:36;17.40;;;9.20;;
3845;SDS011;1938;50.812;7.738;2022-09-21T02:45:20;39.03;;;10.10;;
3845;SDS011;1938;50.812;7.738;2022-09-21T02:48:01;19.30;;;10.07;;
3845;SDS011;1938;50.812;7.738;2022-09-21T02:50:41;18.37;;;9.77;;
3845;SDS011;1938;50.812;7.738;2022-09-21T02:53:11;15.60;;;9.87;;
3845;SDS011;1938;50.812;7.738;2022-09-21T02:55:41;15.00;;;9.87;;
3845;SDS011;1938;50.812;7.738;2022-09-21T02:58:09;38.97;;;10.70;;
3845;SDS011;1938;50.812;7.738;2022-09-21T03:00:38;44.70;;;13.10;;
3845;SDS011;1938;50.812;7.738;2022-09-21T03:03:14;124.67;;;14.77;;
3845;SDS011;1938;50.812;7.738;2022-09-21T03:05:42;67.93;;;11.93;;
3845;SDS011;1938;50.812;7.738;2022-09-21T03:08:09;172.67;;;16.57;;
3845;SDS011;1938;50.812;7.738;2022-09-21T03:10:35;151.90;;;15.50;;
3845;SDS011;1938;50.812;7.738;2022-09-21T03:13:03;77.00;;;15.87;;
3845;SDS011;1938;50.812;7.738;2022-09-21T03:15:29;191.63;;;19.67;;
3845;SDS011;1938;50.812;7.738;2022-09-21T03:17:55;308.20;;;24.77;;
3845;SDS011;1938;50.812;7.738;2022-09-21T03:20:20;293.00;;;20.13;;
3845;SDS011;1938;50.812;7.738;2022-09-21T03:22:46;92.17;;;12.50;;
3845;SDS011;1938;50.812;7.738;2022-09-21T03:25:11;57.47;;;12.90;;
3845;SDS011;1938;50.812;7.738;2022-09-21T03:27:37;79.63;;;13.27;;
3845;SDS011;1938;50.812;7.738;2022-09-21T03:30:03;40.90;;;12.00;;
3845;SDS011;1938;50.812;7.738;2022-09-21T03:32:29;23.17;;;10.97;;
3845;SDS011;1938;50.812;7.738;2022-09-21T03:34:55;21.70;;;10.50;;
3845;SDS011;1938;50.812;7.738;2022-09-21T03:37:21;119.13;;;14.13;;
3845;SDS011;1938;50.812;7.738;2022-09-21T03:39:46;152.67;;;18.97;;
3845;SDS011;1938;50.812;7.738;2022-09-21T03:42:12;66.30;;;12.23;;
3845;SDS011;1938;50.812;7.738;2022-09-21T03:44:38;171.07;;;16.73;;
3845;SDS011;1938;50.812;7.738;2022-09-21T03:47:05;288.10;;;19.47;;
3845;SDS011;1938;50.812;7.738;2022-09-21T03:49:30;83.23;;;12.70;;
3845;SDS011;1938;50.812;7.738;2022-09-21T03:51:56;117.47;;;14.73;;
3845;SDS011;1938;50.812;7.738;2022-09-21T03:54:23;23.60;;;11.10;;
3845;SDS011;1938;50.812;7.738;2022-09-21T03:56:49;29.93;;;11.00;;
3845;SDS011;1938;50.812;7.738;2022-09-21T03:59:15;97.17;;;15.67;;
3845;SDS011;1938;50.812;7.738;2022-09-21T04:01:41;21.23;;;10.50;;
3845;SDS011;1938;50.812;7.738;2022-09-21T04:04:08;66.00;;;11.33;;
3845;SDS011;1938;50.812;7.738;2022-09-21T04:06:34;84.77;;;13.27;;
3845;SDS011;1938;50.812;7.738;2022-09-21T04:09:00;29.30;;;10.07;;
3845;SDS011;1938;50.812;7.738;2022-09-21T04:11:26;99.07;;;12.37;;
3845;SDS011;1938;50.812;7.738;2022-09-21T04:13:53;29.50;;;10.23;;
3845;SDS011;1938;50.812;7.738;2022-09-21T04:16:23;189.63;;;22.87;;
3845;SDS011;1938;50.812;7.738;2022-09-21T04:18:49;322.00;;;20.57;;
3845;SDS011;1938;50.812;7.738;2022-09-21T04:21:18;396.83;;;26.27;;
3845;SDS011;1938;50.812;7.738;2022-09-21T04:23:46;507.90;;;47.87;;
3845;SDS011;1938;50.812;7.738;2022-09-21T04:26:19;373.20;;;25.80;;
3845;SDS011;1938;50.812;7.738;2022-09-21T04:28:45;132.37;;;13.10;;
3845;SDS011;1938;50.812;7.738;2022-09-21T04:31:11;145.50;;;12.60;;
3845;SDS011;1938;50.812;7.738;2022-09-21T04:33:37;204.53;;;16.93;;
3845;SDS011;1938;50.812;7.738;2022-09-21T04:36:02;108.00;;;12.37;;
3845;SDS011;1938;50.812;7.738;2022-09-21T04:38:30;163.60;;;16.70;;
3845;SDS011;1938;50.812;7.738;2022-09-21T04:40:57;111.63;;;11.60;;
3845;SDS011;1938;50.812;7.738;2022-09-21T04:43:23;47.00;;;9.70;;
3845;SDS011;1938;50.812;7.738;2022-09-21T04:45:49;31.87;;;9.13;;
3845;SDS011;1938;50.812;7.738;2022-09-21T04:48:15;21.07;;;9.40;;
3845;SDS011;1938;50.812;7.738;2022-09-21T04:50:41;28.50;;;11.07;;
3845;SDS011;1938;50.812;7.738;2022-09-21T04:53:06;100.57;;;13.33;;
3845;SDS011;1938;50.812;7.738;2022-09-21T04:55:32;100.33;;;12.97;;
3845;SDS011;1938;50.812;7.738;2022-09-21T04:57:57;265.47;;;18.23;;
3845;SDS011;1938;50.812;7.738;2022-09-21T05:00:23;168.17;;;13.50;;
3845;SDS011;1938;50.812;7.738;2022-09-21T05:02:49;202.30;;;16.00;;
3845;SDS011;1938;50.812;7.738;2022-09-21T05:05:15;182.17;;;19.67;;
3845;SDS011;1938;50.812;7.738;2022-09-21T05:07:41;177.50;;;15.63;;
3845;SDS011;1938;50.812;7.738;2022-09-21T05:10:07;94.47;;;10.43;;
3845;SDS011;1938;50.812;7.738;2022-09-21T05:12:33;222.63;;;13.43;;
3845;SDS011;1938;50.812;7.738;2022-09-21T05:15:00;132.23;;;12.40;;
3845;SDS011;1938;50.812;7.738;2022-09-21T05:17:26;353.77;;;20.93;;
3845;SDS011;1938;50.812;7.738;2022-09-21T05:19:52;279.17;;;17.87;;
3845;SDS011;1938;50.812;7.738;2022-09-21T05:22:17;269.53;;;16.10;;
3845;SDS011;1938;50.812;7.738;2022-09-21T05:24:44;193.37;;;16.53;;
3845;SDS011;1938;50.812;7.738;2022-09-21T05:27:09;125.23;;;13.00;;
3845;SDS011;1938;50.812;7.738;2022-09-21T05:29:35;116.17;;;13.60;;
3845;SDS011;1938;50.812;7.738;2022-09-21T05:32:06;256.90;;;15.80;;
3845;SDS011;1938;50.812;7.738;2022-09-21T05:37:42;45.37;;;9.10;;
3845;SDS011;1938;50.812;7.738;2022-09-21T05:40:27;95.37;;;10.30;;
3845;SDS011;1938;50.812;7.738;2022-09-21T05:42:53;122.13;;;11.13;;
3845;SDS011;1938;50.812;7.738;2022-09-21T05:45:19;185.47;;;14.40;;
3845;SDS011;1938;50.812;7.738;2022-09-21T05:48:01;261.87;;;17.43;;
3845;SDS011;1938;50.812;7.738;2022-09-21T05:50:47;152.77;;;12.90;;
3845;SDS011;1938;50.812;7.738;2022-09-21T05:53:44;118.83;;;12.70;;
3845;SDS011;1938;50.812;7.738;2022-09-21T05:59:38;301.33;;;20.13;;
3845;SDS011;1938;50.812;7.738;2022-09-21T06:02:23;126.30;;;13.00;;
3845;SDS011;1938;50.812;7.738;2022-09-21T06:05:11;89.73;;;9.33;;
3845;SDS011;1938;50.812;7.738;2022-09-21T06:07:38;78.40;;;9.80;;
3845;SDS011;1938;50.812;7.738;2022-09-21T06:10:05;60.40;;;9.10;;
3845;SDS011;1938;50.812;7.738;2022-09-21T06:12:31;34.67;;;8.07;;
3845;SDS011;1938;50.812;7.738;2022-09-21T06:14:57;70.00;;;9.60;;
3845;SDS011;1938;50.812;7.738;2022-09-21T06:17:22;44.07;;;9.07;;
3845;SDS011;1938;50.812;7.738;2022-09-21T06:19:51;65.50;;;8.80;;
3845;SDS011;1938;50.812;7.738;2022-09-21T06:22:17;58.27;;;8.90;;
3845;SDS011;1938;50.812;7.738;2022-09-21T06:24:42;59.47;;;8.40;;
3845;SDS011;1938;50.812;7.738;2022-09-21T06:27:08;113.23;;;10.40;;
3845;SDS011;1938;50.812;7.738;2022-09-21T06:29:34;114.63;;;9.80;;
3845;SDS011;1938;50.812;7.738;2022-09-21T06:32:00;138.70;;;10.47;;
3845;SDS011;1938;50.812;7.738;2022-09-21T06:34:26;73.47;;;6.50;;
3845;SDS011;1938;50.812;7.738;2022-09-21T06:36:52;45.77;;;6.60;;
3845;SDS011;1938;50.812;7.738;2022-09-21T06:39:17;29.70;;;6.70;;
3845;SDS011;1938;50.812;7.738;2022-09-21T06:41:43;66.63;;;8.30;;
3845;SDS011;1938;50.812;7.738;2022-09-21T06:44:09;74.27;;;7.50;;
3845;SDS011;1938;50.812;7.738;2022-09-21T06:46:35;103.63;;;8.60;;
3845;SDS011;1938;50.812;7.738;2022-09-21T06:49:00;105.00;;;8.80;;
3845;SDS011;1938;50.812;7.738;2022-09-21T06:51:26;162.87;;;9.87;;
3845;SDS011;1938;50.812;7.738;2022-09-21T06:53:55;229.97;;;10.70;;
3845;SDS011;1938;50.812;7.738;2022-09-21T06:56:21;240.43;;;11.97;;
3845;SDS011;1938;50.812;7.738;2022-09-21T06:58:48;241.87;;;11.90;;
3845;SDS011;1938;50.812;7.738;2022-09-21T07:01:14;212.73;;;10.30;;
3845;SDS011;1938;50.812;7.738;2022-09-21T07:03:41;127.17;;;8.93;;
3845;SDS011;1938;50.812;7.738;2022-09-21T07:06:07;147.83;;;9.13;;
3845;SDS011;1938;50.812;7.738;2022-09-21T07:08:35;68.10;;;7.17;;
3845;SDS011;1938;50.812;7.738;2022-09-21T07:11:02;202.33;;;10.53;;
3845;SDS011;1938;50.812;7.738;2022-09-21T07:13:28;14.40;;;4.53;;
3845;SDS011;1938;50.812;7.738;2022-09-21T07:15:54;53.73;;;7.10;;
3845;SDS011;1938;50.812;7.738;2022-09-21T07:18:20;41.73;;;6.67;;
3845;SDS011;1938;50.812;7.738;2022-09-21T07:20:46;44.50;;;7.43;;
3845;SDS011;1938;50.812;7.738;2022-09-21T07:23:16;73.93;;;6.70;;
3845;SDS011;1938;50.812;7.738;2022-09-21T07:25:43;62.17;;;7.23;;
3845;SDS011;1938;50.812;7.738;2022-09-21T07:28:10;29.43;;;6.30;;
3845;SDS011;1938;50.812;7.738;2022-09-21T07:30:37;37.27;;;5.83;;
3845;SDS011;1938;50.812;7.738;2022-09-21T07:33:04;37.63;;;6.93;;
3845;SDS011;1938;50.812;7.738;2022-09-21T07:35:30;43.93;;;8.10;;
3845;SDS011;1938;50.812;7.738;2022-09-21T07:37:56;13.70;;;6.73;;
3845;SDS011;1938;50.812;7.738;2022-09-21T07:40:22;35.60;;;8.27;;
3845;SDS011;1938;50.812;7.738;2022-09-21T07:42:48;12.07;;;6.30;;
3845;SDS011;1938;50.812;7.738;2022-09-21T07:45:14;6.93;;;4.43;;
3845;SDS011;1938;50.812;7.738;2022-09-21T07:47:39;8.00;;;4.40;;
3845;SDS011;1938;50.812;7.738;2022-09-21T07:50:05;10.67;;;5.00;;
3845;SDS011;1938;50.812;7.738;2022-09-21T07:52:31;10.20;;;5.93;;
3845;SDS011;1938;50.812;7.738;2022-09-21T07:54:56;10.30;;;6.20;;
3845;SDS011;1938;50.812;7.738;2022-09-21T07:57:23;9.87;;;5.90;;
3845;SDS011;1938;50.812;7.738;2022-09-21T08:00:07;11.63;;;5.90;;
3845;SDS011;1938;50.812;7.738;2022-09-21T08:02:33;10.37;;;5.67;;
3845;SDS011;1938;50.812;7.738;2022-09-21T08:04:59;9.00;;;5.50;;
3845;SDS011;1938;50.812;7.738;2022-09-21T08:07:24;7.33;;;4.67;;
3845;SDS011;1938;50.812;7.738;2022-09-21T08:09:51;7.27;;;4.63;;
3845;SDS011;1938;50.812;7.738;2022-09-21T08:12:17;7.70;;;5.10;;
3845;SDS011;1938;50.812;7.738;2022-09-21T08:14:44;9.00;;;4.23;;
3845;SDS011;1938;50.812;7.738;2022-09-21T08:17:14;10.27;;;3.13;;
3845;SDS011;1938;50.812;7.738;2022-09-21T08:19:40;5.10;;;3.00;;
3845;SDS011;1938;50.812;7.738;2022-09-21T08:22:05;6.00;;;2.77;;
3845;SDS011;1938;50.812;7.738;2022-09-21T08:24:31;6.10;;;3.80;;
3845;SDS011;1938;50.812;7.738;2022-09-21T08:26:57;6.40;;;3.40;;
3845;SDS011;1938;50.812;7.738;2022-09-21T08:29:23;5.63;;;3.37;;
3845;SDS011;1938;50.812;7.738;2022-09-21T08:31:49;5.37;;;3.33;;
3845;SDS011;1938;50.812;7.738;2022-09-21T08:34:16;4.10;;;2.90;;
3845;SDS011;1938;50.812;7.738;2022-09-21T08:36:43;4.87;;;3.10;;
3845;SDS011;1938;50.812;7.738;2022-09-21T08:39:09;5.27;;;2.97;;
3845;SDS011;1938;50.812;7.738;2022-09-21T08:44:30;3.70;;;2.47;;
3845;SDS011;1938;50.812;7.738;2022-09-21T08:47:03;4.60;;;2.77;;
3845;SDS011;1938;50.812;7.738;2022-09-21T08:49:36;5.43;;;3.40;;
3845;SDS011;1938;50.812;7.738;2022-09-21T08:52:06;4.20;;;2.83;;
3845;SDS011;1938;50.812;7.738;2022-09-21T08:57:09;3.53;;;2.97;;
3845;SDS011;1938;50.812;7.738;2022-09-21T08:59:37;3.83;;;3.07;;
3845;SDS011;1938;50.812;7.738;2022-09-21T09:07:45;6.43;;;3.00;;
3845;SDS011;1938;50.812;7.738;2022-09-21T09:18:30;3.03;;;2.00;;
3845;SDS011;1938;50.812;7.738;2022-09-21T09:21:16;3.43;;;2.30;;
3845;SDS011;1938;50.812;7.738;2022-09-21T09:23:53;4.70;;;2.30;;
3845;SDS011;1938;50.812;7.738;2022-09-21T09:26:32;7.10;;;2.73;;
3845;SDS011;1938;50.812;7.738;2022-09-21T09:29:02;5.33;;;2.50;;
3845;SDS011;1938;50.812;7.738;2022-09-21T09:31:36;7.80;;;2.23;;
3845;SDS011;1938;50.812;7.738;2022-09-21T09:37:14;3.53;;;1.90;;
3845;SDS011;1938;50.812;7.738;2022-09-21T09:39:41;3.70;;;1.87;;
3845;SDS011;1938;50.812;7.738;2022-09-21T09:42:20;3.67;;;1.50;;
3845;SDS011;1938;50.812;7.738;2022-09-21T09:47:57;3.23;;;1.40;;
3845;SDS011;1938;50.812;7.738;2022-09-21T09:50:41;3.93;;;1.87;;
3845;SDS011;1938;50.812;7.738;2022-09-21T09:55:39;3.83;;;1.43;;
3845;SDS011;1938;50.812;7.738;2022-09-21T09:58:15;10.50;;;2.50;;
3845;SDS011;1938;50.812;7.738;2022-09-21T10:00:41;7.33;;;1.90;;
3845;SDS011;1938;50.812;7.738;2022-09-21T10:03:18;3.57;;;1.43;;
3845;SDS011;1938;50.812;7.738;2022-09-21T10:05:46;8.10;;;1.80;;
3845;SDS011;1938;50.812;7.738;2022-09-21T10:08:38;3.37;;;1.40;;
3845;SDS011;1938;50.812;7.738;2022-09-21T10:11:06;2.40;;;1.30;;
3845;SDS011;1938;50.812;7.738;2022-09-21T10:13:32;6.70;;;1.90;;
3845;SDS011;1938;50.812;7.738;2022-09-21T10:16:13;3.70;;;1.67;;
3845;SDS011;1938;50.812;7.738;2022-09-21T10:18:43;6.33;;;1.80;;
3845;SDS011;1938;50.812;7.738;2022-09-21T10:21:16;9.90;;;1.77;;
3845;SDS011;1938;50.812;7.738;2022-09-21T10:23:49;2.77;;;1.13;;
3845;SDS011;1938;50.812;7.738;2022-09-21T10:26:21;5.53;;;1.20;;
3845;SDS011;1938;50.812;7.738;2022-09-21T10:28:53;6.10;;;1.70;;
3845;SDS011;1938;50.812;7.738;2022-09-21T10:31:22;4.00;;;1.27;;
3845;SDS011;1938;50.812;7.738;2022-09-21T10:34:05;2.83;;;1.10;;
3845;SDS011;1938;50.812;7.738;2022-09-21T10:36:37;3.00;;;1.00;;
3845;SDS011;1938;50.812;7.738;2022-09-21T10:39:25;8.10;;;1.30;;
3845;SDS011;1938;50.812;7.738;2022-09-21T10:41:59;2.83;;;1.37;;
3845;SDS011;1938;50.812;7.738;2022-09-21T10:44:44;2.73;;;1.37;;
3845;SDS011;1938;50.812;7.738;2022-09-21T10:47:18;5.93;;;1.03;;
3845;SDS011;1938;50.812;7.738;2022-09-21T10:49:45;8.27;;;1.57;;
3845;SDS011;1938;50.812;7.738;2022-09-21T10:52:16;4.40;;;1.20;;
3845;SDS011;1938;50.812;7.738;2022-09-21T10:54:45;1.70;;;1.00;;
3845;SDS011;1938;50.812;7.738;2022-09-21T10:57:16;4.90;;;1.10;;
3845;SDS011;1938;50.812;7.738;2022-09-21T10:59:44;3.27;;;1.10;;
3845;SDS011;1938;50.812;7.738;2022-09-21T11:04:59;4.57;;;1.60;;
3845;SDS011;1938;50.812;7.738;2022-09-21T11:07:57;2.83;;;0.90;;
3845;SDS011;1938;50.812;7.738;2022-09-21T11:13:34;5.87;;;1.40;;
3845;SDS011;1938;50.812;7.738;2022-09-21T11:26:49;1.80;;;0.90;;
3845;SDS011;1938;50.812;7.738;2022-09-21T11:29:25;3.57;;;1.23;;
3845;SDS011;1938;50.812;7.738;2022-09-21T11:34:56;3.87;;;1.70;;
3845;SDS011;1938;50.812;7.738;2022-09-21T11:40:31;4.03;;;1.50;;
3845;SDS011;1938;50.812;7.738;2022-09-21T11:46:23;4.13;;;1.23;;
3845;SDS011;1938;50.812;7.738;2022-09-21T11:51:54;2.23;;;1.00;;
3845;SDS011;1938;50.812;7.738;2022-09-21T12:08:26;1.50;;;1.00;;
3845;SDS011;1938;50.812;7.738;2022-09-21T12:19:32;2.60;;;1.07;;
3845;SDS011;1938;50.812;7.738;2022-09-21T12:22:08;2.93;;;0.93;;
3845;SDS011;1938;50.812;7.738;2022-09-21T12:24:42;3.30;;;1.00;;
3845;SDS011;1938;50.812;7.738;2022-09-21T12:27:19;3.60;;;0.93;;
3845;SDS011;1938;50.812;7.738;2022-09-21T12:29:49;2.93;;;1.13;;
3845;SDS011;1938;50.812;7.738;2022-09-21T12:35:16;2.43;;;0.97;;
3845;SDS011;1938;50.812;7.738;2022-09-21T12:37:48;8.30;;;1.47;;
3845;SDS011;1938;50.812;7.738;2022-09-21T12:40:37;1.90;;;1.10;;
3845;SDS011;1938;50.812;7.738;2022-09-21T12:46:08;2.70;;;1.27;;
3845;SDS011;1938;50.812;7.738;2022-09-21T12:48:41;3.73;;;1.53;;
3845;SDS011;1938;50.812;7.738;2022-09-21T12:53:37;1.83;;;1.10;;
3845;SDS011;1938;50.812;7.738;2022-09-21T12:56:19;14.97;;;1.40;;
3845;SDS011;1938;50.812;7.738;2022-09-21T12:59:29;1.83;;;1.03;;
3845;SDS011;1938;50.812;7.738;2022-09-21T13:04:52;2.17;;;1.00;;
3845;SDS011;1938;50.812;7.738;2022-09-21T13:15:59;1.93;;;0.90;;
3845;SDS011;1938;50.812;7.738;2022-09-21T13:18:34;2.37;;;1.10;;
3845;SDS011;1938;50.812;7.738;2022-09-21T13:21:17;2.90;;;1.10;;
3845;SDS011;1938;50.812;7.738;2022-09-21T13:26:52;2.90;;;1.10;;
3845;SDS011;1938;50.812;7.738;2022-09-21T13:31:57;4.97;;;1.50;;
3845;SDS011;1938;50.812;7.738;2022-09-21T13:34:31;2.33;;;1.10;;
3845;SDS011;1938;50.812;7.738;2022-09-21T13:39:44;2.13;;;1.27;;
3845;SDS011;1938;50.812;7.738;2022-09-21T13:44:59;2.77;;;1.30;;
3845;SDS011;1938;50.812;7.738;2022-09-21T13:47:29;2.07;;;1.13;;
3845;SDS011;1938;50.812;7.738;2022-09-21T13:49:57;2.33;;;1.20;;
3845;SDS011;1938;50.812;7.738;2022-09-21T13:52:44;2.70;;;1.50;;
3845;SDS011;1938;50.812;7.738;2022-09-21T13:55:19;1.70;;;0.97;;
3845;SDS011;1938;50.812;7.738;2022-09-21T13:57:54;2.33;;;1.00;;
3845;SDS011;1938;50.812;7.738;2022-09-21T14:05:26;5.00;;;1.13;;
3845;SDS011;1938;50.812;7.738;2022-09-21T14:10:40;2.07;;;0.97;;
3845;SDS011;1938;50.812;7.738;2022-09-21T14:13:22;1.53;;;0.90;;
3845;SDS011;1938;50.812;7.738;2022-09-21T14:15:48;2.73;;;1.10;;
3845;SDS011;1938;50.812;7.738;2022-09-21T14:23:41;1.83;;;1.00;;
3845;SDS011;1938;50.812;7.738;2022-09-21T14:29:11;2.80;;;1.20;;
3845;SDS011;1938;50.812;7.738;2022-09-21T14:31:56;4.40;;;1.10;;
3845;SDS011;1938;50.812;7.738;2022-09-21T14:34:26;2.67;;;1.00;;
3845;SDS011;1938;50.812;7.738;2022-09-21T14:37:01;6.63;;;1.93;;
3845;SDS011;1938;50.812;7.738;2022-09-21T14:39:32;3.80;;;1.80;;
3845;SDS011;1938;50.812;7.738;2022-09-21T14:42:02;1.63;;;0.90;;
3845;SDS011;1938;50.812;7.738;2022-09-21T14:44:39;2.57;;;1.20;;
3845;SDS011;1938;50.812;7.738;2022-09-21T14:49:35;3.00;;;1.00;;
3845;SDS011;1938;50.812;7.738;2022-09-21T15:00:41;3.97;;;1.03;;
3845;SDS011;1938;50.812;7.738;2022-09-21T15:03:55;3.63;;;1.10;;
3845;SDS011;1938;50.812;7.738;2022-09-21T15:12:18;4.20;;;1.20;;
3845;SDS011;1938;50.812;7.738;2022-09-21T15:17:55;3.73;;;1.20;;
3845;SDS011;1938;50.812;7.738;2022-09-21T15:20:25;2.20;;;1.20;;
3845;SDS011;1938;50.812;7.738;2022-09-21T15:22:56;3.43;;;1.47;;
3845;SDS011;1938;50.812;7.738;2022-09-21T15:25:23;2.47;;;1.30;;
3845;SDS011;1938;50.812;7.738;2022-09-21T15:27:52;2.50;;;1.10;;
3845;SDS011;1938;50.812;7.738;2022-09-21T15:30:25;3.80;;;1.60;;
3845;SDS011;1938;50.812;7.738;2022-09-21T15:32:53;2.00;;;1.40;;
3845;SDS011;1938;50.812;7.738;2022-09-21T15:35:25;4.73;;;1.70;;
3845;SDS011;1938;50.812;7.738;2022-09-21T15:37:53;3.23;;;1.23;;
3845;SDS011;1938;50.812;7.738;2022-09-21T15:40:21;7.97;;;1.33;;
3845;SDS011;1938;50.812;7.738;2022-09-21T15:43:06;3.33;;;1.70;;
3845;SDS011;1938;50.812;7.738;2022-09-21T15:46:00;3.83;;;1.70;;
3845;SDS011;1938;50.812;7.738;2022-09-21T15:48:28;3.57;;;1.30;;
3845;SDS011;1938;50.812;7.738;2022-09-21T15:51:09;3.00;;;1.30;;
3845;SDS011;1938;50.812;7.738;2022-09-21T15:53:48;3.50;;;1.77;;
3845;SDS011;1938;50.812;7.738;2022-09-21T15:56:18;7.87;;;1.40;;
3845;SDS011;1938;50.812;7.738;2022-09-21T15:58:46;3.00;;;1.27;;
3845;SDS011;1938;50.812;7.738;2022-09-21T16:01:17;8.50;;;1.50;;
3845;SDS011;1938;50.812;7.738;2022-09-21T16:03:47;4.00;;;1.80;;
3845;SDS011;1938;50.812;7.738;2022-09-21T16:08:48;3.07;;;1.20;;
3845;SDS011;1938;50.812;7.738;2022-09-21T16:14:08;4.20;;;1.23;;
3845;SDS011;1938;50.812;7.738;2022-09-21T16:17:06;5.57;;;2.13;;
3845;SDS011;1938;50.812;7.738;2022-09-21T16:22:29;5.80;;;3.00;;
3845;SDS011;1938;50.812;7.738;2022-09-21T16:25:02;2.43;;;1.90;;
3845;SDS011;1938;50.812;7.738;2022-09-21T16:28:43;3.47;;;1.63;;
3845;SDS011;1938;50.812;7.738;2022-09-21T16:30:53;4.67;;;1.40;;
3845;SDS011;1938;50.812;7.738;2022-09-21T16:38:49;4.00;;;1.40;;
3845;SDS011;1938;50.812;7.738;2022-09-21T16:41:18;2.43;;;1.30;;
3845;SDS011;1938;50.812;7.738;2022-09-21T16:43:49;4.97;;;1.30;;
3845;SDS011;1938;50.812;7.738;2022-09-21T16:46:16;2.33;;;1.37;;
3845;SDS011;1938;50.812;7.738;2022-09-21T16:48:42;4.93;;;1.30;;
3845;SDS011;1938;50.812;7.738;2022-09-21T16:51:12;2.20;;;1.20;;
3845;SDS011;1938;50.812;7.738;2022-09-21T16:53:40;2.93;;;1.40;;
3845;SDS011;1938;50.812;7.738;2022-09-21T16:56:11;6.70;;;1.47;;
3845;SDS011;1938;50.812;7.738;2022-09-21T16:58:38;2.63;;;1.47;;
3845;SDS011;1938;50.812;7.738;2022-09-21T17:01:06;3.13;;;1.27;;
3845;SDS011;1938;50.812;7.738;2022-09-21T17:03:33;3.67;;;1.20;;
3845;SDS011;1938;50.812;7.738;2022-09-21T17:05:59;2.43;;;1.10;;
3845;SDS011;1938;50.812;7.738;2022-09-21T17:08:24;2.87;;;1.27;;
3845;SDS011;1938;50.812;7.738;2022-09-21T17:10:54;4.23;;;1.73;;
3845;SDS011;1938;50.812;7.738;2022-09-21T17:13:19;4.50;;;1.60;;
3845;SDS011;1938;50.812;7.738;2022-09-21T17:15:46;3.93;;;1.60;;
3845;SDS011;1938;50.812;7.738;2022-09-21T17:18:12;3.90;;;1.67;;
3845;SDS011;1938;50.812;7.738;2022-09-21T17:20:39;6.13;;;2.00;;
3845;SDS011;1938;50.812;7.738;2022-09-21T17:23:07;4.13;;;1.60;;
3845;SDS011;1938;50.812;7.738;2022-09-21T17:25:33;3.10;;;1.37;;
3845;SDS011;1938;50.812;7.738;2022-09-21T17:28:00;4.87;;;1.70;;
3845;SDS011;1938;50.812;7.738;2022-09-21T17:30:26;3.90;;;1.80;;
3845;SDS011;1938;50.812;7.738;2022-09-21T17:32:52;2.53;;;1.30;;
3845;SDS011;1938;50.812;7.738;2022-09-21T17:35:32;5.47;;;1.37;;
3845;SDS011;1938;50.812;7.738;2022-09-21T17:38:02;3.93;;;1.60;;
3845;SDS011;1938;50.812;7.738;2022-09-21T17:40:29;2.97;;;1.40;;
3845;SDS011;1938;50.812;7.738;2022-09-21T17:42:58;3.40;;;1.33;;
3845;SDS011;1938;50.812;7.738;2022-09-21T17:45:47;4.13;;;1.50;;
3845;SDS011;1938;50.812;7.738;2022-09-21T17:48:19;4.17;;;1.53;;
3845;SDS011;1938;50.812;7.738;2022-09-21T17:50:45;1.80;;;1.10;;
3845;SDS011;1938;50.812;7.738;2022-09-21T17:53:12;2.60;;;1.43;;
3845;SDS011;1938;50.812;7.738;2022-09-21T17:55:57;3.83;;;1.57;;
3845;SDS011;1938;50.812;7.738;2022-09-21T18:03:36;4.50;;;1.73;;
3845;SDS011;1938;50.812;7.738;2022-09-21T18:06:07;3.20;;;1.90;;
3845;SDS011;1938;50.812;7.738;2022-09-21T18:08:34;4.13;;;1.70;;
3845;SDS011;1938;50.812;7.738;2022-09-21T18:25:13;3.70;;;2.00;;
3845;SDS011;1938;50.812;7.738;2022-09-21T18:27:40;4.10;;;2.50;;
3845;SDS011;1938;50.812;7.738;2022-09-21T18:30:11;2.40;;;1.57;;
3845;SDS011;1938;50.812;7.738;2022-09-21T18:32:55;8.97;;;2.40;;
3845;SDS011;1938;50.812;7.738;2022-09-21T18:41:16;4.73;;;1.80;;
3845;SDS011;1938;50.812;7.738;2022-09-21T18:52:12;4.93;;;2.70;;
3845;SDS011;1938;50.812;7.738;2022-09-21T18:54:41;8.03;;;2.50;;
3845;SDS011;1938;50.812;7.738;2022-09-21T18:57:09;5.70;;;2.80;;
3845;SDS011;1938;50.812;7.738;2022-09-21T18:59:37;7.43;;;2.27;;
3845;SDS011;1938;50.812;7.738;2022-09-21T19:02:05;6.70;;;2.73;;
3845;SDS011;1938;50.812;7.738;2022-09-21T19:04:40;7.10;;;2.40;;
3845;SDS011;1938;50.812;7.738;2022-09-21T19:07:19;7.10;;;3.20;;